sensor_id;sensor_type;location;lat;lon;timestamp;P1;durP1;ratioP1;P2;durP2;ratioP2
21546;SDS011;41275;51.912;4.388;2022-08-03T00:02:03;6.45;;;1.70;;
21546;SDS011;41275;51.912;4.388;2022-08-03T00:07:25;8.80;;;2.03;;
21546;SDS011;41275;51.912;4.388;2022-08-03T00:12:46;6.13;;;1.40;;
21546;SDS011;41275;51.912;4.388;2022-08-03T00:18:07;8.15;;;1.80;;
21546;SDS011;41275;51.912;4.388;2022-08-03T00:23:29;5.78;;;1.60;;
21546;SDS011;41275;51.912;4.388;2022-08-03T00:28:50;7.00;;;1.80;;
21546;SDS011;41275;51.912;4.388;2022-08-03T00:34:11;6.50;;;1.70;;
21546;SDS011;41275;51.912;4.388;2022-08-03T00:39:33;8.38;;;1.60;;
21546;SDS011;41275;51.912;4.388;2022-08-03T00:44:54;7.57;;;1.53;;
21546;SDS011;41275;51.912;4.388;2022-08-03T00:50:16;9.40;;;1.73;;
21546;SDS011;41275;51.912;4.388;2022-08-03T00:55:38;9.73;;;1.90;;
21546;SDS011;41275;51.912;4.388;2022-08-03T01:01:00;7.10;;;1.55;;
21546;SDS011;41275;51.912;4.388;2022-08-03T01:06:28;6.40;;;1.77;;
21546;SDS011;41275;51.912;4.388;2022-08-03T01:17:43;9.30;;;1.60;;
21546;SDS011;41275;51.912;4.388;2022-08-03T01:23:36;10.30;;;1.80;;
21546;SDS011;41275;51.912;4.388;2022-08-03T01:34:59;8.73;;;1.57;;
21546;SDS011;41275;51.912;4.388;2022-08-03T01:40:24;6.60;;;1.73;;
21546;SDS011;41275;51.912;4.388;2022-08-03T01:45:48;8.75;;;1.77;;
21546;SDS011;41275;51.912;4.388;2022-08-03T01:51:10;10.15;;;2.00;;
21546;SDS011;41275;51.912;4.388;2022-08-03T01:56:33;7.25;;;1.65;;
21546;SDS011;41275;51.912;4.388;2022-08-03T02:01:56;8.38;;;1.75;;
21546;SDS011;41275;51.912;4.388;2022-08-03T02:07:19;7.27;;;1.80;;
21546;SDS011;41275;51.912;4.388;2022-08-03T02:12:42;7.25;;;2.17;;
21546;SDS011;41275;51.912;4.388;2022-08-03T02:18:06;9.88;;;1.90;;
21546;SDS011;41275;51.912;4.388;2022-08-03T02:23:29;8.13;;;2.00;;
21546;SDS011;41275;51.912;4.388;2022-08-03T02:28:51;8.75;;;2.45;;
21546;SDS011;41275;51.912;4.388;2022-08-03T02:34:16;9.80;;;2.30;;
21546;SDS011;41275;51.912;4.388;2022-08-03T02:39:40;7.82;;;2.10;;
21546;SDS011;41275;51.912;4.388;2022-08-03T02:45:04;9.45;;;1.88;;
21546;SDS011;41275;51.912;4.388;2022-08-03T02:50:27;10.32;;;1.98;;
21546;SDS011;41275;51.912;4.388;2022-08-03T02:55:50;10.20;;;2.17;;
21546;SDS011;41275;51.912;4.388;2022-08-03T03:01:13;9.55;;;2.10;;
21546;SDS011;41275;51.912;4.388;2022-08-03T03:06:35;7.63;;;2.17;;
21546;SDS011;41275;51.912;4.388;2022-08-03T03:11:57;10.60;;;2.38;;
21546;SDS011;41275;51.912;4.388;2022-08-03T03:17:20;10.30;;;2.27;;
21546;SDS011;41275;51.912;4.388;2022-08-03T03:22:42;9.10;;;1.95;;
21546;SDS011;41275;51.912;4.388;2022-08-03T03:28:04;14.43;;;2.87;;
21546;SDS011;41275;51.912;4.388;2022-08-03T03:33:26;9.87;;;2.17;;
21546;SDS011;41275;51.912;4.388;2022-08-03T03:38:47;7.93;;;2.17;;
21546;SDS011;41275;51.912;4.388;2022-08-03T03:44:08;7.72;;;2.22;;
21546;SDS011;41275;51.912;4.388;2022-08-03T03:49:30;8.80;;;2.25;;
21546;SDS011;41275;51.912;4.388;2022-08-03T03:54:51;12.68;;;2.50;;
21546;SDS011;41275;51.912;4.388;2022-08-03T04:00:13;8.60;;;2.00;;
21546;SDS011;41275;51.912;4.388;2022-08-03T04:05:35;11.23;;;2.70;;
21546;SDS011;41275;51.912;4.388;2022-08-03T04:11:17;9.77;;;2.50;;
21546;SDS011;41275;51.912;4.388;2022-08-03T04:16:47;9.00;;;2.60;;
21546;SDS011;41275;51.912;4.388;2022-08-03T04:22:13;9.57;;;2.60;;
21546;SDS011;41275;51.912;4.388;2022-08-03T04:27:38;11.68;;;2.30;;
21546;SDS011;41275;51.912;4.388;2022-08-03T04:33:01;9.40;;;2.50;;
21546;SDS011;41275;51.912;4.388;2022-08-03T04:38:22;12.02;;;2.50;;
21546;SDS011;41275;51.912;4.388;2022-08-03T04:43:45;14.43;;;2.75;;
21546;SDS011;41275;51.912;4.388;2022-08-03T04:49:08;9.63;;;2.47;;
21546;SDS011;41275;51.912;4.388;2022-08-03T04:54:37;12.38;;;2.90;;
21546;SDS011;41275;51.912;4.388;2022-08-03T04:59:59;10.50;;;2.60;;
21546;SDS011;41275;51.912;4.388;2022-08-03T05:05:21;7.53;;;2.45;;
21546;SDS011;41275;51.912;4.388;2022-08-03T05:10:42;10.05;;;2.50;;
21546;SDS011;41275;51.912;4.388;2022-08-03T05:16:03;8.23;;;2.57;;
21546;SDS011;41275;51.912;4.388;2022-08-03T05:21:25;10.93;;;2.60;;
21546;SDS011;41275;51.912;4.388;2022-08-03T05:26:46;14.65;;;2.85;;
21546;SDS011;41275;51.912;4.388;2022-08-03T05:32:07;9.75;;;2.88;;
21546;SDS011;41275;51.912;4.388;2022-08-03T05:37:28;12.23;;;3.20;;
21546;SDS011;41275;51.912;4.388;2022-08-03T05:42:50;11.68;;;2.75;;
21546;SDS011;41275;51.912;4.388;2022-08-03T05:48:11;11.23;;;3.23;;
21546;SDS011;41275;51.912;4.388;2022-08-03T05:53:32;14.90;;;3.50;;
21546;SDS011;41275;51.912;4.388;2022-08-03T05:58:54;15.27;;;5.67;;
21546;SDS011;41275;51.912;4.388;2022-08-03T06:04:15;12.23;;;4.93;;
21546;SDS011;41275;51.912;4.388;2022-08-03T06:09:36;12.60;;;5.20;;
21546;SDS011;41275;51.912;4.388;2022-08-03T06:14:58;10.02;;;5.35;;
21546;SDS011;41275;51.912;4.388;2022-08-03T06:20:19;16.13;;;5.80;;
21546;SDS011;41275;51.912;4.388;2022-08-03T06:25:40;15.35;;;6.63;;
21546;SDS011;41275;51.912;4.388;2022-08-03T06:31:02;16.60;;;7.47;;
21546;SDS011;41275;51.912;4.388;2022-08-03T06:36:23;14.55;;;6.78;;
21546;SDS011;41275;51.912;4.388;2022-08-03T06:41:45;16.70;;;7.47;;
21546;SDS011;41275;51.912;4.388;2022-08-03T06:47:06;18.65;;;7.28;;
21546;SDS011;41275;51.912;4.388;2022-08-03T06:52:28;16.25;;;6.32;;
21546;SDS011;41275;51.912;4.388;2022-08-03T06:57:49;13.73;;;6.97;;
21546;SDS011;41275;51.912;4.388;2022-08-03T07:03:10;17.80;;;7.97;;
21546;SDS011;41275;51.912;4.388;2022-08-03T07:08:31;12.65;;;7.05;;
21546;SDS011;41275;51.912;4.388;2022-08-03T07:13:53;15.87;;;7.30;;
21546;SDS011;41275;51.912;4.388;2022-08-03T07:19:14;16.10;;;7.93;;
21546;SDS011;41275;51.912;4.388;2022-08-03T07:24:35;16.40;;;7.70;;
21546;SDS011;41275;51.912;4.388;2022-08-03T07:29:57;17.70;;;7.78;;
21546;SDS011;41275;51.912;4.388;2022-08-03T07:35:19;15.93;;;7.10;;
21546;SDS011;41275;51.912;4.388;2022-08-03T07:40:40;17.87;;;8.37;;
21546;SDS011;41275;51.912;4.388;2022-08-03T07:46:01;20.43;;;8.67;;
21546;SDS011;41275;51.912;4.388;2022-08-03T07:51:25;12.30;;;7.35;;
21546;SDS011;41275;51.912;4.388;2022-08-03T07:56:46;17.53;;;8.50;;
21546;SDS011;41275;51.912;4.388;2022-08-03T08:02:07;17.63;;;7.88;;
21546;SDS011;41275;51.912;4.388;2022-08-03T08:07:28;15.55;;;8.10;;
21546;SDS011;41275;51.912;4.388;2022-08-03T08:12:50;18.30;;;8.03;;
21546;SDS011;41275;51.912;4.388;2022-08-03T08:18:11;14.45;;;7.65;;
21546;SDS011;41275;51.912;4.388;2022-08-03T08:23:32;16.27;;;7.70;;
21546;SDS011;41275;51.912;4.388;2022-08-03T08:28:54;17.67;;;8.30;;
21546;SDS011;41275;51.912;4.388;2022-08-03T08:34:15;20.23;;;7.88;;
21546;SDS011;41275;51.912;4.388;2022-08-03T08:39:36;15.45;;;8.05;;
21546;SDS011;41275;51.912;4.388;2022-08-03T08:44:59;14.88;;;7.60;;
21546;SDS011;41275;51.912;4.388;2022-08-03T08:50:20;16.30;;;8.10;;
21546;SDS011;41275;51.912;4.388;2022-08-03T08:55:42;14.80;;;8.30;;
21546;SDS011;41275;51.912;4.388;2022-08-03T09:01:08;15.27;;;8.02;;
21546;SDS011;41275;51.912;4.388;2022-08-03T09:06:29;14.88;;;7.68;;
21546;SDS011;41275;51.912;4.388;2022-08-03T09:11:51;16.52;;;6.93;;
21546;SDS011;41275;51.912;4.388;2022-08-03T09:17:12;15.60;;;7.60;;
21546;SDS011;41275;51.912;4.388;2022-08-03T09:28:20;15.77;;;7.60;;
21546;SDS011;41275;51.912;4.388;2022-08-03T09:33:45;13.80;;;7.77;;
21546;SDS011;41275;51.912;4.388;2022-08-03T09:39:09;18.27;;;7.63;;
21546;SDS011;41275;51.912;4.388;2022-08-03T09:44:35;16.10;;;7.70;;
21546;SDS011;41275;51.912;4.388;2022-08-03T09:50:05;13.20;;;7.32;;
21546;SDS011;41275;51.912;4.388;2022-08-03T09:55:28;15.03;;;7.33;;
21546;SDS011;41275;51.912;4.388;2022-08-03T10:00:53;13.50;;;6.30;;
21546;SDS011;41275;51.912;4.388;2022-08-03T10:06:21;15.48;;;6.15;;
21546;SDS011;41275;51.912;4.388;2022-08-03T10:11:42;13.00;;;5.90;;
21546;SDS011;41275;51.912;4.388;2022-08-03T10:17:06;10.55;;;5.28;;
21546;SDS011;41275;51.912;4.388;2022-08-03T10:22:33;13.80;;;6.43;;
21546;SDS011;41275;51.912;4.388;2022-08-03T10:27:55;16.48;;;5.05;;
21546;SDS011;41275;51.912;4.388;2022-08-03T10:33:21;12.63;;;4.90;;
21546;SDS011;41275;51.912;4.388;2022-08-03T10:38:47;13.75;;;5.00;;
21546;SDS011;41275;51.912;4.388;2022-08-03T10:44:14;14.30;;;4.57;;
21546;SDS011;41275;51.912;4.388;2022-08-03T10:49:38;11.57;;;4.50;;
21546;SDS011;41275;51.912;4.388;2022-08-03T10:55:00;12.75;;;4.90;;
21546;SDS011;41275;51.912;4.388;2022-08-03T11:00:49;13.32;;;5.28;;
21546;SDS011;41275;51.912;4.388;2022-08-03T11:06:14;9.15;;;4.15;;
21546;SDS011;41275;51.912;4.388;2022-08-03T11:11:41;14.93;;;4.20;;
21546;SDS011;41275;51.912;4.388;2022-08-03T11:17:07;12.47;;;4.40;;
21546;SDS011;41275;51.912;4.388;2022-08-03T11:22:46;9.77;;;3.90;;
21546;SDS011;41275;51.912;4.388;2022-08-03T11:28:27;9.13;;;3.00;;
21546;SDS011;41275;51.912;4.388;2022-08-03T11:34:01;7.78;;;3.15;;
21546;SDS011;41275;51.912;4.388;2022-08-03T11:39:36;10.47;;;2.50;;
21546;SDS011;41275;51.912;4.388;2022-08-03T11:45:00;10.63;;;2.58;;
21546;SDS011;41275;51.912;4.388;2022-08-03T11:50:34;12.17;;;2.60;;
21546;SDS011;41275;51.912;4.388;2022-08-03T11:56:00;12.37;;;2.30;;
21546;SDS011;41275;51.912;4.388;2022-08-03T12:01:22;12.10;;;2.70;;
21546;SDS011;41275;51.912;4.388;2022-08-03T12:06:59;11.57;;;2.25;;
21546;SDS011;41275;51.912;4.388;2022-08-03T12:12:21;7.72;;;1.73;;
21546;SDS011;41275;51.912;4.388;2022-08-03T12:17:42;7.53;;;2.17;;
21546;SDS011;41275;51.912;4.388;2022-08-03T12:23:04;8.40;;;2.20;;
21546;SDS011;41275;51.912;4.388;2022-08-03T12:28:26;7.63;;;2.10;;
21546;SDS011;41275;51.912;4.388;2022-08-03T12:39:16;9.43;;;2.28;;
21546;SDS011;41275;51.912;4.388;2022-08-03T12:44:42;6.00;;;1.63;;
21546;SDS011;41275;51.912;4.388;2022-08-03T12:50:05;6.95;;;1.52;;
21546;SDS011;41275;51.912;4.388;2022-08-03T12:55:27;6.90;;;1.50;;
21546;SDS011;41275;51.912;4.388;2022-08-03T13:00:56;8.45;;;1.90;;
21546;SDS011;41275;51.912;4.388;2022-08-03T13:06:20;8.57;;;1.80;;
21546;SDS011;41275;51.912;4.388;2022-08-03T13:11:43;6.60;;;1.70;;
21546;SDS011;41275;51.912;4.388;2022-08-03T13:17:05;6.60;;;1.42;;
21546;SDS011;41275;51.912;4.388;2022-08-03T13:22:26;6.73;;;1.50;;
21546;SDS011;41275;51.912;4.388;2022-08-03T13:27:50;7.47;;;1.70;;
21546;SDS011;41275;51.912;4.388;2022-08-03T13:33:12;6.13;;;1.40;;
21546;SDS011;41275;51.912;4.388;2022-08-03T13:38:33;5.10;;;1.27;;
21546;SDS011;41275;51.912;4.388;2022-08-03T13:43:54;3.95;;;0.85;;
21546;SDS011;41275;51.912;4.388;2022-08-03T13:49:16;3.90;;;1.03;;
21546;SDS011;41275;51.912;4.388;2022-08-03T13:54:37;6.38;;;1.10;;
21546;SDS011;41275;51.912;4.388;2022-08-03T13:59:58;2.63;;;0.70;;
21546;SDS011;41275;51.912;4.388;2022-08-03T14:05:19;4.93;;;1.00;;
21546;SDS011;41275;51.912;4.388;2022-08-03T14:10:41;5.13;;;1.10;;
21546;SDS011;41275;51.912;4.388;2022-08-03T14:16:04;8.83;;;1.47;;
21546;SDS011;41275;51.912;4.388;2022-08-03T14:21:25;7.18;;;1.35;;
21546;SDS011;41275;51.912;4.388;2022-08-03T14:26:46;4.83;;;1.03;;
21546;SDS011;41275;51.912;4.388;2022-08-03T14:32:07;5.28;;;1.30;;
21546;SDS011;41275;51.912;4.388;2022-08-03T14:37:29;2.97;;;0.80;;
21546;SDS011;41275;51.912;4.388;2022-08-03T14:42:50;4.43;;;0.95;;
21546;SDS011;41275;51.912;4.388;2022-08-03T14:48:11;3.97;;;1.10;;
21546;SDS011;41275;51.912;4.388;2022-08-03T14:53:33;4.33;;;0.97;;
21546;SDS011;41275;51.912;4.388;2022-08-03T14:58:54;5.07;;;1.00;;
21546;SDS011;41275;51.912;4.388;2022-08-03T15:04:15;6.07;;;1.20;;
21546;SDS011;41275;51.912;4.388;2022-08-03T15:09:36;5.50;;;1.20;;
21546;SDS011;41275;51.912;4.388;2022-08-03T15:15:00;3.67;;;0.98;;
21546;SDS011;41275;51.912;4.388;2022-08-03T15:20:22;5.43;;;1.17;;
21546;SDS011;41275;51.912;4.388;2022-08-03T15:25:43;3.97;;;1.10;;
21546;SDS011;41275;51.912;4.388;2022-08-03T15:31:05;6.73;;;1.50;;
21546;SDS011;41275;51.912;4.388;2022-08-03T15:36:26;4.43;;;0.90;;
21546;SDS011;41275;51.912;4.388;2022-08-03T15:41:48;3.67;;;1.00;;
21546;SDS011;41275;51.912;4.388;2022-08-03T15:47:09;4.40;;;0.97;;
21546;SDS011;41275;51.912;4.388;2022-08-03T15:52:30;1.75;;;0.77;;
21546;SDS011;41275;51.912;4.388;2022-08-03T15:57:51;2.17;;;0.90;;
21546;SDS011;41275;51.912;4.388;2022-08-03T16:03:13;3.33;;;0.80;;
21546;SDS011;41275;51.912;4.388;2022-08-03T16:08:34;2.47;;;0.88;;
21546;SDS011;41275;51.912;4.388;2022-08-03T16:13:55;5.05;;;1.15;;
21546;SDS011;41275;51.912;4.388;2022-08-03T16:19:16;6.13;;;1.30;;
21546;SDS011;41275;51.912;4.388;2022-08-03T16:24:37;3.55;;;0.95;;
21546;SDS011;41275;51.912;4.388;2022-08-03T16:29:58;4.10;;;0.90;;
21546;SDS011;41275;51.912;4.388;2022-08-03T16:35:20;5.85;;;1.08;;
21546;SDS011;41275;51.912;4.388;2022-08-03T16:40:41;4.47;;;1.17;;
21546;SDS011;41275;51.912;4.388;2022-08-03T16:46:02;4.25;;;1.38;;
21546;SDS011;41275;51.912;4.388;2022-08-03T16:51:23;6.23;;;1.30;;
21546;SDS011;41275;51.912;4.388;2022-08-03T16:56:45;4.75;;;1.42;;
21546;SDS011;41275;51.912;4.388;2022-08-03T17:02:06;7.00;;;1.17;;
21546;SDS011;41275;51.912;4.388;2022-08-03T17:07:28;5.97;;;1.13;;
21546;SDS011;41275;51.912;4.388;2022-08-03T17:12:49;6.13;;;0.90;;
21546;SDS011;41275;51.912;4.388;2022-08-03T17:18:11;2.70;;;0.90;;
21546;SDS011;41275;51.912;4.388;2022-08-03T17:23:38;2.80;;;1.00;;
21546;SDS011;41275;51.912;4.388;2022-08-03T17:29:05;4.22;;;1.17;;
21546;SDS011;41275;51.912;4.388;2022-08-03T17:34:28;4.00;;;1.13;;
21546;SDS011;41275;51.912;4.388;2022-08-03T17:39:50;4.22;;;1.35;;
21546;SDS011;41275;51.912;4.388;2022-08-03T17:45:13;3.95;;;1.02;;
21546;SDS011;41275;51.912;4.388;2022-08-03T17:50:38;4.33;;;1.10;;
21546;SDS011;41275;51.912;4.388;2022-08-03T17:56:11;5.80;;;1.20;;
21546;SDS011;41275;51.912;4.388;2022-08-03T18:01:56;4.50;;;1.17;;
21546;SDS011;41275;51.912;4.388;2022-08-03T18:07:38;5.57;;;1.58;;
21546;SDS011;41275;51.912;4.388;2022-08-03T18:13:09;5.43;;;1.10;;
21546;SDS011;41275;51.912;4.388;2022-08-03T18:18:35;6.28;;;1.23;;
21546;SDS011;41275;51.912;4.388;2022-08-03T18:23:58;5.07;;;1.40;;
21546;SDS011;41275;51.912;4.388;2022-08-03T18:29:21;7.38;;;1.80;;
21546;SDS011;41275;51.912;4.388;2022-08-03T18:34:42;4.38;;;1.30;;
21546;SDS011;41275;51.912;4.388;2022-08-03T18:40:05;7.30;;;1.38;;
21546;SDS011;41275;51.912;4.388;2022-08-03T18:45:27;3.63;;;1.20;;
21546;SDS011;41275;51.912;4.388;2022-08-03T18:50:58;5.47;;;1.38;;
21546;SDS011;41275;51.912;4.388;2022-08-03T18:56:35;3.40;;;1.20;;
21546;SDS011;41275;51.912;4.388;2022-08-03T19:02:14;5.57;;;1.30;;
21546;SDS011;41275;51.912;4.388;2022-08-03T19:07:54;4.27;;;1.50;;
21546;SDS011;41275;51.912;4.388;2022-08-03T19:13:20;4.13;;;1.33;;
21546;SDS011;41275;51.912;4.388;2022-08-03T19:18:48;6.13;;;1.20;;
21546;SDS011;41275;51.912;4.388;2022-08-03T19:24:11;3.90;;;1.27;;
21546;SDS011;41275;51.912;4.388;2022-08-03T19:29:33;4.82;;;1.20;;
21546;SDS011;41275;51.912;4.388;2022-08-03T19:34:56;6.47;;;1.90;;
21546;SDS011;41275;51.912;4.388;2022-08-03T19:40:18;6.07;;;1.80;;
21546;SDS011;41275;51.912;4.388;2022-08-03T19:45:40;5.80;;;2.43;;
21546;SDS011;41275;51.912;4.388;2022-08-03T19:51:05;5.60;;;2.30;;
21546;SDS011;41275;51.912;4.388;2022-08-03T19:56:27;4.23;;;1.50;;
21546;SDS011;41275;51.912;4.388;2022-08-03T20:01:49;9.37;;;2.07;;
21546;SDS011;41275;51.912;4.388;2022-08-03T20:07:11;4.93;;;1.80;;
21546;SDS011;41275;51.912;4.388;2022-08-03T20:12:34;4.22;;;1.55;;
21546;SDS011;41275;51.912;4.388;2022-08-03T20:17:58;6.03;;;1.77;;
21546;SDS011;41275;51.912;4.388;2022-08-03T20:23:19;7.30;;;2.35;;
21546;SDS011;41275;51.912;4.388;2022-08-03T20:28:44;4.43;;;1.50;;
21546;SDS011;41275;51.912;4.388;2022-08-03T20:34:11;6.30;;;1.60;;
21546;SDS011;41275;51.912;4.388;2022-08-03T20:39:32;5.60;;;1.50;;
21546;SDS011;41275;51.912;4.388;2022-08-03T20:44:54;4.97;;;1.30;;
21546;SDS011;41275;51.912;4.388;2022-08-03T20:50:15;5.30;;;1.50;;
21546;SDS011;41275;51.912;4.388;2022-08-03T20:55:36;5.63;;;1.70;;
21546;SDS011;41275;51.912;4.388;2022-08-03T21:00:58;4.10;;;1.47;;
21546;SDS011;41275;51.912;4.388;2022-08-03T21:06:19;4.72;;;1.48;;
21546;SDS011;41275;51.912;4.388;2022-08-03T21:11:47;4.50;;;1.58;;
21546;SDS011;41275;51.912;4.388;2022-08-03T21:17:10;3.95;;;1.58;;
21546;SDS011;41275;51.912;4.388;2022-08-03T21:22:34;7.55;;;2.58;;
21546;SDS011;41275;51.912;4.388;2022-08-03T21:27:57;6.15;;;1.90;;
21546;SDS011;41275;51.912;4.388;2022-08-03T21:33:19;4.63;;;1.63;;
21546;SDS011;41275;51.912;4.388;2022-08-03T21:38:44;5.25;;;1.70;;
21546;SDS011;41275;51.912;4.388;2022-08-03T21:44:06;5.53;;;1.90;;
21546;SDS011;41275;51.912;4.388;2022-08-03T21:49:30;5.15;;;2.15;;
21546;SDS011;41275;51.912;4.388;2022-08-03T21:54:53;6.75;;;1.90;;
21546;SDS011;41275;51.912;4.388;2022-08-03T22:00:16;5.05;;;2.30;;
21546;SDS011;41275;51.912;4.388;2022-08-03T22:05:38;6.95;;;2.35;;
21546;SDS011;41275;51.912;4.388;2022-08-03T22:11:01;6.43;;;2.30;;
21546;SDS011;41275;51.912;4.388;2022-08-03T22:16:22;4.65;;;1.92;;
21546;SDS011;41275;51.912;4.388;2022-08-03T22:21:46;6.07;;;2.00;;
21546;SDS011;41275;51.912;4.388;2022-08-03T22:27:10;5.13;;;1.60;;
21546;SDS011;41275;51.912;4.388;2022-08-03T22:32:52;5.07;;;1.83;;
21546;SDS011;41275;51.912;4.388;2022-08-03T22:38:17;4.93;;;1.93;;
21546;SDS011;41275;51.912;4.388;2022-08-03T22:43:38;3.80;;;1.77;;
21546;SDS011;41275;51.912;4.388;2022-08-03T22:49:00;6.63;;;1.97;;
21546;SDS011;41275;51.912;4.388;2022-08-03T22:54:22;7.53;;;2.00;;
21546;SDS011;41275;51.912;4.388;2022-08-03T22:59:44;4.55;;;2.03;;
21546;SDS011;41275;51.912;4.388;2022-08-03T23:05:08;5.60;;;1.70;;
21546;SDS011;41275;51.912;4.388;2022-08-03T23:10:35;5.27;;;1.70;;
21546;SDS011;41275;51.912;4.388;2022-08-03T23:15:58;4.82;;;1.73;;
21546;SDS011;41275;51.912;4.388;2022-08-03T23:21:19;5.50;;;1.70;;
21546;SDS011;41275;51.912;4.388;2022-08-03T23:26:41;5.00;;;1.80;;
21546;SDS011;41275;51.912;4.388;2022-08-03T23:32:03;4.53;;;1.75;;
21546;SDS011;41275;51.912;4.388;2022-08-03T23:37:25;5.22;;;1.95;;
21546;SDS011;41275;51.912;4.388;2022-08-03T23:42:46;5.28;;;1.67;;
21546;SDS011;41275;51.912;4.388;2022-08-03T23:48:09;5.57;;;1.87;;
21546;SDS011;41275;51.912;4.388;2022-08-03T23:53:38;5.50;;;1.70;;
